Time;durP1;ratioP1;P1;durP2;ratioP2;P2;SDS_P1;SDS_P2;PMS_P1;PMS_P2;Temp;Humidity;BMP_temperature;BMP_pressure;BME280_temperature;BME280_humidity;BME280_pressure;Samples;Min_cycle;Max_cycle;Signal;HPM_P1;HPM_P2
2022/03/09 00:00:21;;;;;;;10.25;4.50;;;2.10;76.50;;;;;;4940718;28;281654;-82
2022/03/09 00:02:48;;;;;;;10.82;4.75;;;2.10;76.80;;;;;;4978393;28;20424;-82
2022/03/09 00:05:14;;;;;;;11.75;4.30;;;2.20;77.80;;;;;;4912239;28;148093;-80
2022/03/09 00:07:40;;;;;;;11.68;4.40;;;2.10;77.70;;;;;;4961907;28;20047;-81
2022/03/09 00:10:07;;;;;;;12.30;4.57;;;2.10;77.70;;;;;;4917232;28;73506;-81
2022/03/09 00:12:34;;;;;;;11.23;4.82;;;2.10;77.90;;;;;;4966248;28;20055;-81
2022/03/09 00:15:00;;;;;;;10.70;4.70;;;2.10;78.40;;;;;;4925328;28;206806;-80
2022/03/09 00:17:27;;;;;;;11.00;4.75;;;2.00;78.70;;;;;;4968874;28;20069;-81
2022/03/09 00:19:53;;;;;;;11.10;4.68;;;2.00;79.10;;;;;;4925841;28;137644;-82
2022/03/09 00:22:19;;;;;;;14.20;4.97;;;2.00;79.40;;;;;;4966065;28;20066;-81
2022/03/09 00:24:45;;;;;;;10.85;4.90;;;1.90;80.40;;;;;;4924359;28;234428;-81
2022/03/09 00:27:11;;;;;;;11.65;4.72;;;1.90;80.70;;;;;;4963006;28;20065;-80
2022/03/09 00:29:37;;;;;;;10.68;4.78;;;1.90;81.00;;;;;;4935600;28;143744;-80
2022/03/09 00:32:04;;;;;;;11.55;5.07;;;1.90;81.40;;;;;;4971664;28;20057;-81
2022/03/09 00:34:30;;;;;;;12.50;5.22;;;1.80;81.60;;;;;;4920760;28;193528;-81
2022/03/09 00:36:56;;;;;;;11.38;4.82;;;1.80;82.20;;;;;;4966368;28;20062;-81
2022/03/09 00:39:22;;;;;;;13.07;5.28;;;1.80;82.40;;;;;;4933548;28;241648;-80
2022/03/09 00:41:49;;;;;;;12.10;5.10;;;1.70;82.90;;;;;;4955407;28;20413;-80
2022/03/09 00:44:16;;;;;;;12.60;4.95;;;1.70;83.50;;;;;;4959421;28;79326;-80
2022/03/09 00:46:42;;;;;;;11.63;5.25;;;1.70;84.00;;;;;;4958975;28;20075;-82
2022/03/09 00:49:08;;;;;;;12.60;4.88;;;1.70;84.80;;;;;;4961312;28;262855;-81
2022/03/09 00:51:34;;;;;;;13.77;5.97;;;1.70;85.50;;;;;;4930898;28;20050;-81
2022/03/09 00:54:01;;;;;;;12.03;5.47;;;1.70;85.80;;;;;;4962023;28;250952;-82
2022/03/09 00:56:27;;;;;;;15.50;5.35;;;1.70;86.60;;;;;;4951707;28;20046;-81
2022/03/09 00:58:53;;;;;;;11.17;5.07;;;1.60;86.90;;;;;;4959657;28;265578;-82
2022/03/09 01:01:19;;;;;;;11.95;5.28;;;1.60;87.20;;;;;;4951368;28;20380;-82
2022/03/09 01:03:46;;;;;;;12.05;4.97;;;1.60;87.80;;;;;;4946274;28;263521;-82
2022/03/09 01:06:12;;;;;;;13.65;5.68;;;1.60;88.20;;;;;;4932161;28;128201;-82
2022/03/09 01:08:38;;;;;;;13.80;5.75;;;1.60;88.50;;;;;;4978354;28;20051;-82
2022/03/09 01:11:04;;;;;;;12.93;5.30;;;1.60;88.90;;;;;;4910619;28;176022;-82
2022/03/09 01:13:30;;;;;;;13.32;5.45;;;1.50;89.50;;;;;;4979610;28;20089;-82
2022/03/09 01:15:56;;;;;;;11.90;5.32;;;1.60;89.70;;;;;;4912106;28;59919;-82
2022/03/09 01:18:22;;;;;;;11.55;5.22;;;1.60;90.10;;;;;;4963593;28;20054;-81
2022/03/09 01:20:48;;;;;;;12.70;5.70;;;1.50;90.50;;;;;;4919670;28;241950;-82
2022/03/09 01:23:16;;;;;;;12.07;5.57;;;1.50;90.60;;;;;;4989540;28;20059;-81
2022/03/09 01:25:42;;;;;;;11.35;4.97;;;1.40;90.70;;;;;;4939312;28;52985;-82
2022/03/09 01:28:08;;;;;;;12.55;5.90;;;1.40;91.10;;;;;;4983161;28;20078;-81
2022/03/09 01:30:34;;;;;;;13.02;5.72;;;1.40;91.30;;;;;;4900650;28;173697;-81
2022/03/09 01:33:00;;;;;;;12.40;6.05;;;1.40;91.60;;;;;;4970468;28;20062;-81
2022/03/09 01:35:26;;;;;;;12.57;5.60;;;1.40;91.50;;;;;;4939968;28;53595;-81
2022/03/09 01:37:52;;;;;;;12.65;6.05;;;1.40;91.80;;;;;;4973009;28;20059;-81
2022/03/09 01:40:18;;;;;;;12.10;5.90;;;1.30;92.00;;;;;;4939017;28;69069;-82
2022/03/09 01:42:46;;;;;;;14.85;6.35;;;1.30;92.00;;;;;;4968155;28;20050;-81
2022/03/09 01:45:14;;;;;;;11.63;5.50;;;1.30;92.90;;;;;;4957225;28;252914;-83
2022/03/09 01:47:40;;;;;;;13.73;5.85;;;1.30;92.90;;;;;;4962501;28;20059;-82
2022/03/09 01:50:09;;;;;;;13.98;6.10;;;1.30;92.90;;;;;;4954254;28;187598;-82
2022/03/09 01:52:36;;;;;;;13.05;5.57;;;1.30;93.10;;;;;;4978215;28;20204;-82
2022/03/09 01:55:03;;;;;;;13.10;5.65;;;1.30;93.20;;;;;;4943954;28;216671;-83
2022/03/09 01:57:31;;;;;;;12.68;5.50;;;1.30;93.30;;;;;;4962671;28;20404;-82
2022/03/09 02:00:00;;;;;;;12.77;5.93;;;1.20;93.30;;;;;;4934972;28;67526;-82
2022/03/09 02:02:26;;;;;;;12.10;5.75;;;1.20;93.60;;;;;;4979428;28;20046;-81
2022/03/09 02:04:52;;;;;;;14.77;5.70;;;1.20;93.50;;;;;;4920321;28;113513;-82
2022/03/09 02:09:41;;;;;;;13.05;6.45;;;1.20;93.60;;;;;;4972499;28;20496;-82
2022/03/09 02:10:10;;;;;;;13.00;6.22;;;1.20;93.60;;;;;;4925382;28;46788;-83
2022/03/09 02:12:37;;;;;;;13.75;6.43;;;1.10;94.00;;;;;;4967054;28;20059;-82
2022/03/09 02:15:07;;;;;;;14.70;6.30;;;1.10;94.30;;;;;;4937287;28;60489;-82
2022/03/09 02:17:33;;;;;;;13.55;6.05;;;1.10;94.50;;;;;;4958772;28;20054;-82
2022/03/09 02:20:01;;;;;;;12.82;6.38;;;1.10;94.60;;;;;;4913710;28;171179;-83
2022/03/09 02:22:36;;;;;;;14.10;6.80;;;1.10;94.70;;;;;;4953144;28;20054;-82
2022/03/09 02:25:04;;;;;;;12.48;6.38;;;1.10;94.90;;;;;;4925273;28;92243;-81
2022/03/09 02:27:30;;;;;;;15.02;6.35;;;1.10;95.40;;;;;;4966188;28;20062;-81
2022/03/09 02:29:57;;;;;;;13.80;6.82;;;1.10;95.40;;;;;;4930025;28;251797;-82
2022/03/09 02:32:23;;;;;;;15.98;6.15;;;1.10;95.50;;;;;;4973724;28;20516;-81
2022/03/09 02:34:50;;;;;;;14.15;6.30;;;1.10;95.60;;;;;;4933884;28;228011;-81
2022/03/09 02:37:16;;;;;;;13.90;6.47;;;1.10;95.90;;;;;;4979800;28;20051;-82
2022/03/09 02:39:42;;;;;;;14.38;6.35;;;1.10;95.80;;;;;;4940447;28;111416;-81
2022/03/09 02:42:10;;;;;;;16.90;6.47;;;1.10;95.90;;;;;;4977599;28;20141;-81
2022/03/09 02:44:37;;;;;;;17.25;6.65;;;1.10;96.10;;;;;;4928537;28;167490;-81
2022/03/09 02:47:04;;;;;;;13.88;6.03;;;1.10;95.90;;;;;;4967401;28;20058;-81
2022/03/09 02:49:30;;;;;;;13.13;5.75;;;1.10;95.80;;;;;;4941123;28;20058;-81
2022/03/09 02:51:56;;;;;;;12.60;5.97;;;1.00;95.70;;;;;;4955682;28;20048;-81
2022/03/09 02:54:22;;;;;;;14.32;6.60;;;1.00;95.70;;;;;;4929149;28;193650;-81
2022/03/09 02:56:48;;;;;;;13.05;6.07;;;1.00;95.80;;;;;;4962278;28;20053;-81
2022/03/09 02:59:14;;;;;;;14.18;6.25;;;1.00;95.90;;;;;;4955614;28;29427;-81
2022/03/09 03:01:41;;;;;;;13.23;6.65;;;1.00;96.20;;;;;;4931759;28;20069;-81
2022/03/09 03:04:07;;;;;;;13.30;6.32;;;0.90;96.20;;;;;;4939304;28;260956;-81
2022/03/09 03:06:33;;;;;;;13.80;6.60;;;0.80;96.50;;;;;;4923463;28;20047;-82
2022/03/09 03:08:59;;;;;;;13.40;7.03;;;0.80;96.40;;;;;;4965587;28;260936;-81
2022/03/09 03:11:25;;;;;;;14.73;7.20;;;0.80;96.50;;;;;;4950685;28;20046;-81
2022/03/09 03:13:51;;;;;;;14.82;6.63;;;0.80;96.60;;;;;;4962119;28;254104;-81
2022/03/09 03:16:18;;;;;;;17.58;6.53;;;0.70;96.80;;;;;;4932063;28;20953;-82
2022/03/09 03:18:44;;;;;;;15.10;6.68;;;0.70;97.00;;;;;;4983380;28;20070;-81
2022/03/09 03:21:10;;;;;;;13.77;6.50;;;0.70;97.20;;;;;;4917497;28;20069;-81
2022/03/09 03:23:36;;;;;;;12.70;5.93;;;0.60;97.50;;;;;;4970326;28;20070;-81
2022/03/09 03:26:04;;;;;;;14.73;7.22;;;0.60;97.40;;;;;;4910498;28;133105;-82
2022/03/09 03:28:31;;;;;;;13.57;6.20;;;0.60;97.80;;;;;;4953743;28;20055;-81
2022/03/09 03:30:58;;;;;;;15.05;6.97;;;0.60;98.00;;;;;;4916600;28;92921;-82
2022/03/09 03:33:24;;;;;;;14.20;6.72;;;0.50;97.90;;;;;;4968935;28;20050;-82
2022/03/09 03:35:50;;;;;;;15.55;6.97;;;0.50;98.00;;;;;;4901715;28;214414;-83
2022/03/09 03:38:17;;;;;;;16.88;7.38;;;0.50;98.10;;;;;;4966694;28;20050;-81
2022/03/09 03:40:43;;;;;;;13.73;7.05;;;0.50;98.40;;;;;;4920872;28;20051;-82
2022/03/09 03:43:10;;;;;;;13.65;6.97;;;0.50;98.70;;;;;;4971598;28;20512;-82
2022/03/09 03:45:36;;;;;;;15.30;7.32;;;0.50;98.90;;;;;;4920411;28;90537;-82
2022/03/09 03:48:03;;;;;;;15.73;7.03;;;0.50;98.90;;;;;;4974795;28;20047;-82
2022/03/09 03:50:29;;;;;;;14.63;6.95;;;0.50;98.80;;;;;;4929805;28;135458;-83
2022/03/09 03:52:55;;;;;;;14.70;7.10;;;0.50;98.90;;;;;;4979226;28;20050;-83
2022/03/09 03:55:21;;;;;;;14.77;6.85;;;0.40;98.90;;;;;;4929637;28;134415;-82
2022/03/09 03:57:48;;;;;;;16.20;7.55;;;0.50;99.40;;;;;;4974427;28;20042;-83
2022/03/09 04:00:14;;;;;;;15.27;7.45;;;0.50;99.30;;;;;;4936179;28;152948;-83
2022/03/09 04:02:40;;;;;;;14.48;7.13;;;0.40;99.20;;;;;;4991449;28;20055;-83
2022/03/09 04:05:07;;;;;;;16.65;7.63;;;0.50;99.30;;;;;;4903690;28;213520;-83
2022/03/09 04:07:34;;;;;;;15.50;7.43;;;0.40;99.50;;;;;;4973434;28;20078;-83
2022/03/09 04:10:00;;;;;;;14.75;6.97;;;0.40;99.80;;;;;;4927724;28;127044;-83
2022/03/09 04:12:26;;;;;;;18.25;7.68;;;0.50;99.80;;;;;;4960901;28;20061;-83
2022/03/09 04:14:53;;;;;;;15.65;7.75;;;0.50;99.90;;;;;;4944969;28;55041;-83
2022/03/09 04:17:19;;;;;;;15.45;7.53;;;0.50;99.90;;;;;;4954710;28;20143;-82
2022/03/09 04:19:46;;;;;;;16.42;7.93;;;0.50;99.90;;;;;;4923967;28;158085;-82
2022/03/09 04:22:12;;;;;;;14.57;7.55;;;0.50;99.90;;;;;;4959165;28;20057;-82
2022/03/09 04:24:38;;;;;;;14.95;7.10;;;0.40;99.90;;;;;;4933689;28;94601;-82
2022/03/09 04:27:05;;;;;;;16.02;7.38;;;0.40;99.90;;;;;;4948477;28;20058;-83
2022/03/09 04:29:32;;;;;;;15.35;7.18;;;0.40;99.90;;;;;;4931444;28;203235;-82
2022/03/09 04:31:58;;;;;;;14.65;7.22;;;0.40;99.90;;;;;;4969850;28;20058;-82
2022/03/09 04:34:24;;;;;;;15.05;7.30;;;0.40;99.90;;;;;;4938198;28;26155;-82
2022/03/09 04:36:50;;;;;;;13.70;7.18;;;0.30;99.90;;;;;;4957616;28;20061;-83
2022/03/09 04:39:16;;;;;;;16.45;7.65;;;0.30;99.90;;;;;;4943740;28;209557;-83
2022/03/09 04:41:42;;;;;;;14.88;7.38;;;0.30;99.90;;;;;;4959142;28;20053;-83
2022/03/09 04:44:09;;;;;;;15.82;7.55;;;0.30;99.90;;;;;;4966456;28;252308;-83
2022/03/09 04:46:35;;;;;;;14.70;7.60;;;0.30;99.90;;;;;;4921360;28;20061;-83
2022/03/09 04:49:01;;;;;;;14.68;7.75;;;0.30;99.90;;;;;;4960104;28;269321;-83
2022/03/09 04:51:27;;;;;;;16.85;7.70;;;0.30;99.90;;;;;;4946888;28;20059;-83
2022/03/09 04:53:53;;;;;;;15.43;7.05;;;0.20;99.90;;;;;;4960779;28;246691;-83
2022/03/09 04:56:19;;;;;;;16.40;7.30;;;0.20;99.90;;;;;;4934381;28;20547;-83
2022/03/09 04:58:45;;;;;;;15.73;7.90;;;0.30;99.90;;;;;;4960089;28;252656;-82
2022/03/09 05:01:11;;;;;;;17.40;8.00;;;0.30;99.90;;;;;;4925860;28;20047;-83
2022/03/09 05:03:38;;;;;;;17.92;8.35;;;0.30;99.90;;;;;;4974885;28;20062;-83
2022/03/09 05:06:05;;;;;;;17.33;7.78;;;0.30;99.90;;;;;;4905229;28;101361;-83
2022/03/09 05:08:33;;;;;;;14.43;7.40;;;0.20;99.90;;;;;;4976890;28;20145;-83
2022/03/09 05:10:59;;;;;;;16.05;7.70;;;0.20;99.90;;;;;;4945284;28;99451;-83
2022/03/09 05:13:25;;;;;;;17.85;8.00;;;0.20;99.90;;;;;;4974435;28;20065;-83
2022/03/09 05:15:51;;;;;;;15.90;7.72;;;0.20;99.90;;;;;;4921404;28;20123;-83
2022/03/09 05:18:17;;;;;;;17.00;7.70;;;0.20;99.90;;;;;;4974788;28;20051;-83
2022/03/09 05:20:43;;;;;;;18.73;8.18;;;0.20;99.90;;;;;;4922369;28;221629;-83
2022/03/09 05:23:10;;;;;;;14.95;7.88;;;0.20;99.90;;;;;;4965657;28;20058;-83
2022/03/09 05:25:37;;;;;;;16.50;8.15;;;0.20;99.90;;;;;;4923036;28;65385;-83
2022/03/09 05:28:04;;;;;;;16.75;8.13;;;0.20;99.90;;;;;;4978648;28;20456;-83
2022/03/09 05:30:30;;;;;;;17.63;8.27;;;0.20;99.90;;;;;;4932904;28;76984;-83
2022/03/09 05:32:56;;;;;;;15.73;7.75;;;0.10;99.90;;;;;;4984667;28;20062;-83
2022/03/09 05:35:22;;;;;;;15.35;7.63;;;0.00;99.90;;;;;;4958697;28;184943;-82
2022/03/09 05:37:51;;;;;;;15.27;7.75;;;0.00;99.90;;;;;;4997290;28;20051;-83
2022/03/09 05:40:17;;;;;;;16.05;8.32;;;0.00;99.90;;;;;;4947019;28;20204;-82
2022/03/09 05:42:43;;;;;;;17.88;8.05;;;0.00;99.90;;;;;;4984054;28;20062;-82
2022/03/09 05:45:10;;;;;;;15.88;7.75;;;-0.10;99.90;;;;;;4945130;28;104649;-82
2022/03/09 05:47:36;;;;;;;15.77;8.07;;;-0.10;99.90;;;;;;5006972;28;20133;-84
2022/03/09 05:50:03;;;;;;;20.23;8.57;;;-0.10;99.90;;;;;;4944683;28;168870;-84
2022/03/09 05:52:29;;;;;;;16.30;8.57;;;-0.20;99.90;;;;;;4983652;28;20062;-83
2022/03/09 05:54:55;;;;;;;17.52;7.93;;;-0.20;99.90;;;;;;4944649;28;20051;-82
2022/03/09 05:57:22;;;;;;;18.63;8.25;;;-0.20;99.90;;;;;;4960111;28;20047;-82
2022/03/09 05:59:49;;;;;;;16.55;8.48;;;-0.20;99.90;;;;;;4930604;28;215224;-82
2022/03/09 06:02:16;;;;;;;20.85;8.27;;;-0.20;99.90;;;;;;4980249;28;20051;-82
2022/03/09 06:04:45;;;;;;;17.08;8.73;;;-0.20;99.90;;;;;;4922336;28;250921;-82
2022/03/09 06:07:11;;;;;;;16.02;8.20;;;-0.20;99.90;;;;;;4975935;28;20042;-82
2022/03/09 06:09:38;;;;;;;15.15;7.38;;;-0.20;99.90;;;;;;4942087;28;254717;-82
2022/03/09 06:12:04;;;;;;;15.57;8.30;;;-0.20;99.90;;;;;;4957858;28;20166;-82
2022/03/09 06:14:30;;;;;;;17.42;8.38;;;-0.20;99.90;;;;;;4949548;28;207643;-83
2022/03/09 06:16:56;;;;;;;18.15;8.52;;;-0.30;99.90;;;;;;4968289;28;20078;-82
2022/03/09 06:19:23;;;;;;;16.67;8.23;;;-0.30;99.90;;;;;;4932047;28;164443;-83
2022/03/09 06:21:49;;;;;;;16.35;8.20;;;-0.30;99.90;;;;;;4963818;28;20061;-83
2022/03/09 06:24:16;;;;;;;16.38;8.20;;;-0.30;99.90;;;;;;4954609;28;237799;-82
2022/03/09 06:26:43;;;;;;;19.17;8.13;;;-0.30;99.90;;;;;;4932736;28;20027;-82
2022/03/09 06:29:10;;;;;;;16.75;7.97;;;-0.20;99.90;;;;;;4973645;28;266677;-84
2022/03/09 06:31:36;;;;;;;20.50;8.30;;;-0.20;99.90;;;;;;4909709;28;20639;-83
2022/03/09 06:34:03;;;;;;;17.77;8.60;;;-0.20;99.90;;;;;;4966318;28;257246;-84
2022/03/09 06:36:29;;;;;;;16.50;8.25;;;-0.10;99.90;;;;;;4925868;28;20054;-84
2022/03/09 06:38:55;;;;;;;15.98;7.68;;;-0.10;99.90;;;;;;4957693;28;258262;-84
2022/03/09 06:41:21;;;;;;;17.30;8.23;;;-0.10;99.90;;;;;;4935241;28;20042;-83
2022/03/09 06:43:47;;;;;;;17.17;7.82;;;0.00;99.90;;;;;;4959127;28;254951;-84
2022/03/09 06:46:15;;;;;;;17.52;8.35;;;0.00;99.90;;;;;;4927642;28;20614;-84
2022/03/09 06:48:42;;;;;;;17.63;7.97;;;0.00;99.90;;;;;;4969370;28;20063;-84
2022/03/09 06:51:08;;;;;;;14.50;7.43;;;0.00;99.90;;;;;;4922017;28;80431;-84
2022/03/09 06:53:34;;;;;;;17.40;8.10;;;0.00;99.90;;;;;;4957873;28;20065;-84
2022/03/09 06:56:00;;;;;;;15.98;7.78;;;0.10;99.90;;;;;;4924513;28;48132;-84
2022/03/09 06:58:26;;;;;;;16.55;7.80;;;0.10;99.90;;;;;;4970047;28;20042;-86
2022/03/09 07:00:53;;;;;;;15.35;7.50;;;0.20;99.90;;;;;;4919897;28;127694;-86
2022/03/09 07:03:19;;;;;;;17.42;7.32;;;0.20;99.90;;;;;;4968266;28;20062;-87
2022/03/09 07:05:45;;;;;;;17.88;7.53;;;0.30;99.90;;;;;;4905619;28;141100;-85
2022/03/09 07:08:11;;;;;;;15.30;7.55;;;0.40;99.90;;;;;;4965644;28;20054;-85
2022/03/09 07:10:43;;;;;;;16.02;7.97;;;0.40;99.90;;;;;;4909870;28;68171;-83
2022/03/09 07:13:09;;;;;;;17.40;7.75;;;0.50;99.90;;;;;;4975606;28;20313;-82
2022/03/09 07:15:36;;;;;;;14.77;7.38;;;0.60;99.90;;;;;;4908245;28;217790;-82
2022/03/09 07:18:02;;;;;;;15.60;7.32;;;0.70;99.90;;;;;;4960736;28;20077;-83
2022/03/09 07:20:28;;;;;;;18.23;7.95;;;0.70;99.90;;;;;;4942933;28;121686;-83
2022/03/09 07:22:55;;;;;;;18.00;7.70;;;0.80;99.90;;;;;;4983774;28;20047;-83
2022/03/09 07:25:21;;;;;;;18.02;7.70;;;0.90;99.90;;;;;;4942479;28;91927;-83
2022/03/09 07:27:47;;;;;;;19.80;7.00;;;1.00;99.90;;;;;;4985597;28;20053;-83
2022/03/09 07:30:14;;;;;;;15.48;7.78;;;1.10;99.90;;;;;;4927109;28;20069;-83
2022/03/09 07:32:41;;;;;;;16.67;7.38;;;1.20;99.90;;;;;;4976267;28;20062;-83
2022/03/09 07:35:09;;;;;;;16.20;6.95;;;1.20;99.90;;;;;;4959294;28;39540;-83
2022/03/09 07:37:35;;;;;;;19.88;7.72;;;1.20;99.90;;;;;;4980717;28;20061;-85
2022/03/09 07:40:01;;;;;;;15.43;7.15;;;1.30;99.90;;;;;;4923339;28;252913;-84
2022/03/09 07:42:27;;;;;;;14.43;7.32;;;1.40;99.90;;;;;;4963938;28;20054;-85
2022/03/09 07:44:53;;;;;;;14.35;7.60;;;1.30;99.90;;;;;;4935263;28;103281;-84
2022/03/09 07:47:20;;;;;;;17.40;7.70;;;1.50;99.90;;;;;;4983258;28;20493;-85
2022/03/09 07:49:46;;;;;;;15.27;7.43;;;1.40;99.90;;;;;;4935050;28;137587;-84
2022/03/09 07:52:12;;;;;;;14.02;6.85;;;1.50;99.90;;;;;;4961436;28;20085;-85
2022/03/09 07:54:38;;;;;;;15.13;7.70;;;1.50;99.90;;;;;;4921631;28;57446;-85
2022/03/09 07:57:04;;;;;;;15.55;7.13;;;1.60;99.90;;;;;;4968297;28;20058;-87
2022/03/09 07:59:31;;;;;;;16.15;7.35;;;1.70;99.90;;;;;;4967889;28;20072;-84
2022/03/09 08:01:57;;;;;;;14.30;7.00;;;1.80;99.90;;;;;;4984638;28;20050;-85
2022/03/09 08:04:25;;;;;;;15.10;7.05;;;1.90;99.90;;;;;;4930484;28;268868;-85
2022/03/09 08:06:52;;;;;;;15.07;7.20;;;2.00;99.80;;;;;;4946205;28;20061;-83
2022/03/09 08:09:18;;;;;;;18.42;7.32;;;2.10;99.70;;;;;;4926307;28;118770;-84
2022/03/09 08:11:45;;;;;;;13.23;6.85;;;2.10;99.60;;;;;;4968553;28;20067;-84
2022/03/09 08:14:12;;;;;;;15.40;7.63;;;2.30;99.40;;;;;;4958948;28;20057;-84
2022/03/09 08:16:39;;;;;;;14.50;6.97;;;2.40;99.20;;;;;;4941740;28;20046;-84
2022/03/09 08:19:05;;;;;;;14.88;7.63;;;2.40;99.20;;;;;;4960222;28;253191;-83
2022/03/09 08:21:32;;;;;;;15.45;6.90;;;2.50;98.90;;;;;;4927491;28;20560;-84
2022/03/09 08:23:58;;;;;;;14.68;6.75;;;2.70;98.80;;;;;;4948868;28;339721;-84
2022/03/09 08:26:24;;;;;;;13.63;6.53;;;2.70;98.50;;;;;;4949309;28;20047;-84
2022/03/09 08:28:50;;;;;;;14.07;7.43;;;2.80;98.40;;;;;;4970871;28;274417;-84
2022/03/09 08:31:17;;;;;;;13.90;7.00;;;2.90;98.30;;;;;;4949594;28;20043;-85
2022/03/09 08:33:44;;;;;;;13.35;7.10;;;3.00;98.20;;;;;;4981719;28;20661;-84
2022/03/09 08:36:13;;;;;;;18.88;7.07;;;3.10;97.90;;;;;;4928809;28;272029;-83
2022/03/09 08:38:39;;;;;;;14.93;6.45;;;3.20;97.70;;;;;;4984876;28;20043;-84
2022/03/09 08:41:05;;;;;;;16.30;7.00;;;3.30;97.50;;;;;;4920988;28;115906;-82
2022/03/09 08:43:32;;;;;;;15.43;7.40;;;3.40;97.40;;;;;;4981946;28;20051;-84
2022/03/09 08:45:58;;;;;;;14.95;7.20;;;3.40;97.10;;;;;;4917778;28;88466;-85
2022/03/09 08:48:27;;;;;;;13.55;6.70;;;3.60;96.70;;;;;;4955584;28;20051;-87
2022/03/09 08:50:54;;;;;;;13.38;6.93;;;3.70;96.60;;;;;;4903435;28;204403;-87
2022/03/09 08:53:21;;;;;;;18.42;7.85;;;3.80;96.10;;;;;;4972042;28;20054;-86
2022/03/09 08:55:48;;;;;;;14.93;7.28;;;3.90;96.10;;;;;;4935090;28;143988;-88
2022/03/09 08:58:17;;;;;;;14.70;7.30;;;4.00;95.50;;;;;;4973894;28;20058;-86
2022/03/09 09:00:44;;;;;;;14.90;6.90;;;4.10;95.30;;;;;;4936906;28;250675;-86
2022/03/09 09:03:10;;;;;;;14.75;6.88;;;4.20;94.90;;;;;;4974436;28;20047;-86
2022/03/09 09:05:36;;;;;;;14.68;6.88;;;4.30;94.70;;;;;;4917291;28;224551;-88
2022/03/09 09:08:03;;;;;;;23.98;8.73;;;4.50;93.40;;;;;;4973605;28;20156;-85
2022/03/09 09:10:30;;;;;;;15.02;7.25;;;4.60;93.60;;;;;;4910928;28;149602;-85
2022/03/09 09:12:58;;;;;;;13.98;6.72;;;4.70;93.40;;;;;;4963594;28;20066;-87
2022/03/09 09:15:25;;;;;;;17.50;6.93;;;4.80;92.30;;;;;;4922930;28;246122;-88
2022/03/09 09:18:04;;;;;;;14.65;7.72;;;4.90;92.00;;;;;;4970537;28;20082;-88
2022/03/09 09:20:31;;;;;;;14.55;6.88;;;5.00;90.00;;;;;;4932425;28;171287;-87
2022/03/09 09:22:58;;;;;;;14.18;7.80;;;5.20;90.50;;;;;;4967740;28;20152;-88
2022/03/09 09:25:25;;;;;;;14.43;7.53;;;5.40;89.10;;;;;;4939092;28;121519;-88
2022/03/09 09:27:53;;;;;;;17.70;7.55;;;5.40;90.00;;;;;;4968189;28;20050;-85
2022/03/09 09:30:20;;;;;;;18.60;7.38;;;5.40;89.50;;;;;;4922495;28;105972;-85
2022/03/09 09:32:47;;;;;;;16.17;7.75;;;5.40;89.00;;;;;;4964769;28;20532;-85
2022/03/09 09:35:14;;;;;;;14.93;7.28;;;5.40;89.20;;;;;;4930561;28;95566;-85
2022/03/09 09:37:42;;;;;;;15.52;7.82;;;5.50;88.70;;;;;;4958965;28;20062;-87
2022/03/09 09:40:10;;;;;;;15.73;6.95;;;5.60;88.80;;;;;;4924914;28;159076;-86
2022/03/09 09:42:36;;;;;;;16.55;7.30;;;5.60;87.10;;;;;;4963369;28;20055;-86
2022/03/09 09:45:04;;;;;;;14.52;7.30;;;5.80;88.00;;;;;;4928312;28;163926;-86
2022/03/09 09:47:31;;;;;;;22.08;7.95;;;5.70;87.80;;;;;;4961277;28;20050;-86
2022/03/09 09:49:59;;;;;;;15.23;7.25;;;5.80;86.80;;;;;;4935569;28;123139;-86
2022/03/09 09:52:26;;;;;;;15.85;7.85;;;5.90;87.00;;;;;;4978656;28;20121;-87
2022/03/09 09:54:55;;;;;;;14.68;7.32;;;6.10;86.60;;;;;;4949356;28;106175;-88
2022/03/09 09:57:23;;;;;;;14.70;8.07;;;6.30;86.60;;;;;;4973716;28;20574;-87
2022/03/09 09:59:50;;;;;;;15.60;7.80;;;6.60;88.10;;;;;;4941630;28;278789;-86
2022/03/09 10:02:16;;;;;;;16.35;7.45;;;7.20;89.50;;;;;;4973669;28;20121;-86
2022/03/09 10:04:43;;;;;;;16.85;7.60;;;8.00;89.70;;;;;;4913245;28;186332;-86
2022/03/09 10:07:09;;;;;;;15.32;7.40;;;9.00;88.70;;;;;;4957264;28;20074;-87
2022/03/09 10:09:40;;;;;;;14.32;7.80;;;10.00;87.80;;;;;;4911478;28;199044;-87
2022/03/09 10:12:08;;;;;;;14.75;8.13;;;10.90;88.50;;;;;;4980611;28;20059;-87
2022/03/09 10:14:51;;;;;;;14.63;7.72;;;11.70;85.50;;;;;;4937773;28;108751;-87
2022/03/09 10:17:26;;;;;;;12.23;7.13;;;12.40;83.00;;;;;;4973795;28;20043;-86
2022/03/09 10:19:58;;;;;;;15.63;8.38;;;13.10;82.70;;;;;;4938746;28;241462;-88
2022/03/09 10:22:32;;;;;;;13.95;7.60;;;13.70;77.30;;;;;;4943848;28;20497;-86
2022/03/09 10:25:17;;;;;;;13.00;7.70;;;14.30;70.40;;;;;;4915550;28;246034;-84
2022/03/09 10:27:45;;;;;;;15.40;7.45;;;14.50;58.60;;;;;;4970994;28;20042;-83
2022/03/09 10:30:13;;;;;;;13.65;7.28;;;14.70;63.70;;;;;;4929711;28;187251;-86
2022/03/09 10:32:56;;;;;;;15.27;7.20;;;15.00;55.80;;;;;;4969885;28;20066;-87
2022/03/09 10:35:49;;;;;;;15.40;7.22;;;15.20;56.70;;;;;;4928008;28;131272;-86
2022/03/09 10:38:15;;;;;;;14.38;7.45;;;15.80;59.50;;;;;;4973084;28;20062;-85
2022/03/09 10:40:46;;;;;;;14.15;7.55;;;16.40;59.30;;;;;;4904691;28;204453;-85
2022/03/09 10:43:18;;;;;;;13.32;7.30;;;16.60;54.90;;;;;;4967843;28;20055;-85
2022/03/09 10:46:06;;;;;;;15.63;7.68;;;16.60;52.70;;;;;;4934219;28;85405;-86
2022/03/09 10:48:52;;;;;;;13.18;7.15;;;16.70;52.70;;;;;;4985261;28;20047;-88
2022/03/09 10:51:32;;;;;;;11.88;6.82;;;17.10;47.30;;;;;;4920199;28;20062;-86
2022/03/09 10:54:20;;;;;;;15.43;7.60;;;17.30;49.70;;;;;;4961757;28;275745;-85
2022/03/09 10:56:46;;;;;;;12.82;7.18;;;17.60;49.70;;;;;;4913007;28;20051;-85
2022/03/09 10:59:14;;;;;;;13.68;6.80;;;18.40;49.80;;;;;;4985828;28;152284;-85
2022/03/09 11:01:42;;;;;;;12.65;7.53;;;18.70;47.70;;;;;;4929089;28;20039;-86
2022/03/09 11:04:17;;;;;;;15.05;7.05;;;19.30;48.50;;;;;;4965620;28;265032;-86
2022/03/09 11:06:46;;;;;;;11.38;6.88;;;19.90;46.80;;;;;;4943956;28;20038;-86
2022/03/09 11:09:17;;;;;;;12.65;6.88;;;20.50;46.20;;;;;;4964094;28;232882;-84
2022/03/09 11:11:49;;;;;;;11.82;6.60;;;21.00;45.50;;;;;;4930177;28;20053;-85
2022/03/09 11:14:17;;;;;;;12.38;7.80;;;21.50;43.90;;;;;;4974633;28;64103;-86
2022/03/09 11:16:44;;;;;;;11.82;7.07;;;21.80;43.20;;;;;;4936495;28;20038;-85
2022/03/09 11:19:12;;;;;;;11.30;6.78;;;22.10;41.00;;;;;;4960842;28;142978;-86
2022/03/09 11:21:39;;;;;;;11.30;6.70;;;22.20;42.10;;;;;;4913070;28;20059;-86
2022/03/09 11:24:10;;;;;;;12.18;7.38;;;22.50;40.60;;;;;;4966843;28;262072;-86
2022/03/09 11:26:44;;;;;;;12.70;7.43;;;23.00;40.30;;;;;;4960900;28;20046;-86
2022/03/09 11:29:12;;;;;;;14.27;7.43;;;23.10;39.40;;;;;;4955672;28;270968;-85
2022/03/09 11:31:51;;;;;;;11.35;6.93;;;23.30;39.30;;;;;;4917251;28;20057;-86
2022/03/09 11:34:44;;;;;;;13.07;7.90;;;23.70;38.40;;;;;;4921588;28;272446;-85
2022/03/09 11:37:10;;;;;;;11.77;7.00;;;23.90;33.10;;;;;;4972604;28;20102;-86
2022/03/09 11:39:38;;;;;;;14.02;7.05;;;23.60;36.00;;;;;;4927287;28;141956;-86
2022/03/09 11:42:21;;;;;;;10.70;6.97;;;23.50;34.40;;;;;;4964057;28;20086;-86
2022/03/09 11:44:51;;;;;;;10.80;6.88;;;23.70;34.00;;;;;;4926769;28;24015;-85
2022/03/09 11:47:18;;;;;;;11.73;6.93;;;23.70;34.90;;;;;;4972321;28;20061;-86
2022/03/09 11:49:52;;;;;;;12.82;7.35;;;23.60;34.60;;;;;;4934526;28;91215;-86
2022/03/09 11:52:21;;;;;;;12.25;7.13;;;23.70;33.30;;;;;;4936236;28;20439;-86
2022/03/09 11:54:55;;;;;;;11.82;7.05;;;23.70;32.80;;;;;;4932425;28;210075;-87
2022/03/09 11:57:23;;;;;;;10.15;6.40;;;23.90;33.40;;;;;;4957379;28;20054;-86
2022/03/09 12:00:15;;;;;;;11.23;6.72;;;24.00;33.20;;;;;;4927052;28;240728;-87
2022/03/09 12:02:56;;;;;;;11.48;7.20;;;24.20;32.40;;;;;;4959723;28;20061;-88
2022/03/09 12:05:31;;;;;;;11.20;6.63;;;24.80;32.00;;;;;;4897917;28;192450;-87
2022/03/09 12:07:59;;;;;;;11.70;6.75;;;24.80;31.50;;;;;;4963397;28;20803;-87
2022/03/09 12:10:48;;;;;;;12.07;7.30;;;24.70;31.60;;;;;;4917871;28;151886;-87
2022/03/09 12:13:16;;;;;;;11.93;7.32;;;24.70;30.10;;;;;;4966013;28;20420;-88
2022/03/09 12:16:12;;;;;;;11.18;6.70;;;24.60;30.20;;;;;;4900610;28;217720;-89
2022/03/09 12:19:00;;;;;;;14.55;6.72;;;24.90;30.40;;;;;;4972788;28;20057;-87
2022/03/09 12:21:26;;;;;;;11.90;7.32;;;25.10;31.60;;;;;;4931525;28;20046;-87
2022/03/09 12:24:05;;;;;;;12.60;6.82;;;25.20;27.70;;;;;;4944417;28;191626;-87
2022/03/09 12:26:47;;;;;;;13.13;7.40;;;24.40;29.90;;;;;;4925458;28;20039;-87
2022/03/09 12:29:21;;;;;;;10.57;7.00;;;24.70;30.80;;;;;;4955275;28;234583;-87
2022/03/09 12:32:14;;;;;;;12.55;7.22;;;24.70;27.50;;;;;;4920094;28;20043;-88
2022/03/09 12:34:43;;;;;;;10.93;7.38;;;23.80;28.00;;;;;;4923413;28;57678;-87
2022/03/09 12:37:15;;;;;;;12.80;7.25;;;23.10;29.10;;;;;;4942816;28;20050;-85
2022/03/09 12:39:54;;;;;;;11.52;7.55;;;22.80;30.00;;;;;;4933411;28;176675;-85
2022/03/09 12:42:20;;;;;;;10.48;6.82;;;23.20;28.80;;;;;;4978426;28;20400;-86
2022/03/09 12:44:47;;;;;;;11.13;7.50;;;22.20;28.70;;;;;;4926996;28;56782;-86